sensor_id;sensor_type;location;lat;lon;timestamp;temperature;humidity
27781;DHT22;15167;1.318;103.762;2022-08-27T00:00:40;25.60;1.00
27781;DHT22;15167;1.318;103.762;2022-08-27T00:03:06;25.60;1.00
27781;DHT22;15167;1.318;103.762;2022-08-27T00:05:32;25.60;1.00
27781;DHT22;15167;1.318;103.762;2022-08-27T00:07:58;25.60;1.00
27781;DHT22;15167;1.318;103.762;2022-08-27T00:10:25;25.60;1.00
27781;DHT22;15167;1.318;103.762;2022-08-27T00:12:52;25.70;1.00
27781;DHT22;15167;1.318;103.762;2022-08-27T00:15:20;25.70;1.00
27781;DHT22;15167;1.318;103.762;2022-08-27T00:17:46;25.70;1.00
27781;DHT22;15167;1.318;103.762;2022-08-27T00:20:14;25.70;1.00
27781;DHT22;15167;1.318;103.762;2022-08-27T00:22:40;25.70;1.00
27781;DHT22;15167;1.318;103.762;2022-08-27T00:25:06;25.70;1.00
27781;DHT22;15167;1.318;103.762;2022-08-27T00:27:33;25.70;1.00
27781;DHT22;15167;1.318;103.762;2022-08-27T00:29:59;25.70;1.00
27781;DHT22;15167;1.318;103.762;2022-08-27T00:32:25;25.70;1.00
27781;DHT22;15167;1.318;103.762;2022-08-27T00:34:51;25.70;1.00
27781;DHT22;15167;1.318;103.762;2022-08-27T00:37:17;25.70;1.00
27781;DHT22;15167;1.318;103.762;2022-08-27T00:39:44;25.70;1.00
27781;DHT22;15167;1.318;103.762;2022-08-27T00:42:10;25.80;1.00
27781;DHT22;15167;1.318;103.762;2022-08-27T00:44:36;25.90;1.00
27781;DHT22;15167;1.318;103.762;2022-08-27T00:47:05;25.90;1.00
27781;DHT22;15167;1.318;103.762;2022-08-27T00:52:35;25.90;1.00
27781;DHT22;15167;1.318;103.762;2022-08-27T00:55:06;25.90;1.00
27781;DHT22;15167;1.318;103.762;2022-08-27T00:57:34;26.00;1.00
27781;DHT22;15167;1.318;103.762;2022-08-27T01:00:01;26.00;1.00
27781;DHT22;15167;1.318;103.762;2022-08-27T01:02:27;26.00;1.00
27781;DHT22;15167;1.318;103.762;2022-08-27T01:04:57;26.00;1.00
27781;DHT22;15167;1.318;103.762;2022-08-27T01:07:24;26.00;1.00
27781;DHT22;15167;1.318;103.762;2022-08-27T01:09:51;26.10;1.00
27781;DHT22;15167;1.318;103.762;2022-08-27T01:12:18;26.10;1.00
27781;DHT22;15167;1.318;103.762;2022-08-27T01:14:44;26.10;1.00
27781;DHT22;15167;1.318;103.762;2022-08-27T01:17:11;26.20;1.00
27781;DHT22;15167;1.318;103.762;2022-08-27T01:19:46;26.20;1.00
27781;DHT22;15167;1.318;103.762;2022-08-27T01:22:20;26.30;1.00
27781;DHT22;15167;1.318;103.762;2022-08-27T01:24:49;26.40;1.00
27781;DHT22;15167;1.318;103.762;2022-08-27T01:27:17;26.40;1.00
27781;DHT22;15167;1.318;103.762;2022-08-27T01:29:44;26.50;1.00
27781;DHT22;15167;1.318;103.762;2022-08-27T01:32:21;26.50;1.00
27781;DHT22;15167;1.318;103.762;2022-08-27T01:34:48;26.60;1.00
27781;DHT22;15167;1.318;103.762;2022-08-27T01:37:15;26.60;1.00
27781;DHT22;15167;1.318;103.762;2022-08-27T01:39:41;26.80;1.00
27781;DHT22;15167;1.318;103.762;2022-08-27T01:42:09;26.80;1.00
27781;DHT22;15167;1.318;103.762;2022-08-27T01:44:47;26.90;1.00
27781;DHT22;15167;1.318;103.762;2022-08-27T01:47:14;26.90;1.00
27781;DHT22;15167;1.318;103.762;2022-08-27T01:49:41;27.00;1.00
27781;DHT22;15167;1.318;103.762;2022-08-27T01:52:07;27.10;1.00
27781;DHT22;15167;1.318;103.762;2022-08-27T01:54:33;27.20;99.90
27781;DHT22;15167;1.318;103.762;2022-08-27T01:56:59;27.20;99.90
27781;DHT22;15167;1.318;103.762;2022-08-27T01:59:25;27.30;99.90
27781;DHT22;15167;1.318;103.762;2022-08-27T02:01:52;27.40;1.00
27781;DHT22;15167;1.318;103.762;2022-08-27T02:04:19;27.50;99.90
27781;DHT22;15167;1.318;103.762;2022-08-27T02:06:45;27.60;99.90
27781;DHT22;15167;1.318;103.762;2022-08-27T02:09:11;27.70;99.90
27781;DHT22;15167;1.318;103.762;2022-08-27T02:11:38;27.90;99.90
27781;DHT22;15167;1.318;103.762;2022-08-27T02:14:04;28.00;99.90
27781;DHT22;15167;1.318;103.762;2022-08-27T02:16:30;28.20;99.90
27781;DHT22;15167;1.318;103.762;2022-08-27T02:19:01;28.40;99.90
27781;DHT22;15167;1.318;103.762;2022-08-27T02:21:28;28.50;99.90
27781;DHT22;15167;1.318;103.762;2022-08-27T02:23:54;28.60;99.90
27781;DHT22;15167;1.318;103.762;2022-08-27T02:26:20;28.70;99.90
27781;DHT22;15167;1.318;103.762;2022-08-27T02:28:47;28.70;99.90
27781;DHT22;15167;1.318;103.762;2022-08-27T02:31:13;28.80;99.90
27781;DHT22;15167;1.318;103.762;2022-08-27T02:33:42;28.80;99.90
27781;DHT22;15167;1.318;103.762;2022-08-27T02:36:09;28.90;99.90
27781;DHT22;15167;1.318;103.762;2022-08-27T02:38:35;29.00;99.90
27781;DHT22;15167;1.318;103.762;2022-08-27T02:41:01;29.10;99.90
27781;DHT22;15167;1.318;103.762;2022-08-27T02:43:27;29.20;99.90
27781;DHT22;15167;1.318;103.762;2022-08-27T02:45:54;29.30;99.90
27781;DHT22;15167;1.318;103.762;2022-08-27T02:48:20;29.40;99.90
27781;DHT22;15167;1.318;103.762;2022-08-27T02:50:47;29.50;99.90
27781;DHT22;15167;1.318;103.762;2022-08-27T02:53:13;29.60;99.90
27781;DHT22;15167;1.318;103.762;2022-08-27T02:55:39;29.60;99.90
27781;DHT22;15167;1.318;103.762;2022-08-27T02:58:06;29.70;99.90
27781;DHT22;15167;1.318;103.762;2022-08-27T03:00:32;29.70;99.90
27781;DHT22;15167;1.318;103.762;2022-08-27T03:02:59;29.70;99.90
27781;DHT22;15167;1.318;103.762;2022-08-27T03:05:25;29.70;99.90
27781;DHT22;15167;1.318;103.762;2022-08-27T03:07:52;29.70;99.90
27781;DHT22;15167;1.318;103.762;2022-08-27T03:10:18;29.70;99.90
27781;DHT22;15167;1.318;103.762;2022-08-27T03:12:45;29.60;99.90
27781;DHT22;15167;1.318;103.762;2022-08-27T03:15:13;29.60;99.90
27781;DHT22;15167;1.318;103.762;2022-08-27T03:17:39;29.50;99.90
27781;DHT22;15167;1.318;103.762;2022-08-27T03:20:24;29.50;99.90
27781;DHT22;15167;1.318;103.762;2022-08-27T03:22:50;29.50;99.90
27781;DHT22;15167;1.318;103.762;2022-08-27T03:25:16;29.50;99.90
27781;DHT22;15167;1.318;103.762;2022-08-27T03:27:43;29.50;99.90
27781;DHT22;15167;1.318;103.762;2022-08-27T03:30:10;29.50;99.90
27781;DHT22;15167;1.318;103.762;2022-08-27T03:32:37;29.60;99.90
27781;DHT22;15167;1.318;103.762;2022-08-27T03:35:03;29.70;99.90
27781;DHT22;15167;1.318;103.762;2022-08-27T03:37:30;29.70;99.90
27781;DHT22;15167;1.318;103.762;2022-08-27T03:39:56;29.70;99.90
27781;DHT22;15167;1.318;103.762;2022-08-27T03:42:22;29.80;99.90
27781;DHT22;15167;1.318;103.762;2022-08-27T03:44:48;29.80;99.90
27781;DHT22;15167;1.318;103.762;2022-08-27T03:47:14;29.80;99.90
27781;DHT22;15167;1.318;103.762;2022-08-27T03:49:41;29.90;99.90
27781;DHT22;15167;1.318;103.762;2022-08-27T03:52:07;29.90;99.90
27781;DHT22;15167;1.318;103.762;2022-08-27T03:54:34;30.00;99.90
27781;DHT22;15167;1.318;103.762;2022-08-27T03:57:00;30.00;99.90
27781;DHT22;15167;1.318;103.762;2022-08-27T03:59:26;30.10;99.90
27781;DHT22;15167;1.318;103.762;2022-08-27T04:01:53;30.20;99.90
27781;DHT22;15167;1.318;103.762;2022-08-27T04:04:19;30.30;99.90
27781;DHT22;15167;1.318;103.762;2022-08-27T04:06:45;30.40;99.90
27781;DHT22;15167;1.318;103.762;2022-08-27T04:09:12;30.60;54.10
27781;DHT22;15167;1.318;103.762;2022-08-27T04:11:38;30.70;27.30
27781;DHT22;15167;1.318;103.762;2022-08-27T04:14:05;30.70;83.10
27781;DHT22;15167;1.318;103.762;2022-08-27T04:16:34;30.80;72.80
27781;DHT22;15167;1.318;103.762;2022-08-27T04:19:01;30.90;12.40
27781;DHT22;15167;1.318;103.762;2022-08-27T04:21:27;30.80;64.30
27781;DHT22;15167;1.318;103.762;2022-08-27T04:23:54;30.90;96.90
27781;DHT22;15167;1.318;103.762;2022-08-27T04:26:21;31.00;84.10
27781;DHT22;15167;1.318;103.762;2022-08-27T04:28:47;31.00;84.90
27781;DHT22;15167;1.318;103.762;2022-08-27T04:31:13;31.00;99.90
27781;DHT22;15167;1.318;103.762;2022-08-27T04:33:39;31.10;55.50
27781;DHT22;15167;1.318;103.762;2022-08-27T04:36:07;30.90;99.90
27781;DHT22;15167;1.318;103.762;2022-08-27T04:38:33;30.90;99.90
27781;DHT22;15167;1.318;103.762;2022-08-27T04:41:03;30.90;79.30
27781;DHT22;15167;1.318;103.762;2022-08-27T04:43:50;30.90;99.70
27781;DHT22;15167;1.318;103.762;2022-08-27T04:46:23;31.00;94.10
27781;DHT22;15167;1.318;103.762;2022-08-27T04:48:50;31.20;95.70
27781;DHT22;15167;1.318;103.762;2022-08-27T04:51:17;31.30;99.90
27781;DHT22;15167;1.318;103.762;2022-08-27T04:53:43;31.40;93.00
27781;DHT22;15167;1.318;103.762;2022-08-27T04:56:11;31.50;72.00
27781;DHT22;15167;1.318;103.762;2022-08-27T04:58:38;31.60;79.40
27781;DHT22;15167;1.318;103.762;2022-08-27T05:01:04;31.70;42.40
27781;DHT22;15167;1.318;103.762;2022-08-27T05:03:32;31.80;44.80
27781;DHT22;15167;1.318;103.762;2022-08-27T05:06:00;31.90;3.90
27781;DHT22;15167;1.318;103.762;2022-08-27T05:08:26;32.00;1.00
27781;DHT22;15167;1.318;103.762;2022-08-27T05:10:52;32.00;1.00
27781;DHT22;15167;1.318;103.762;2022-08-27T05:13:19;32.10;1.00
27781;DHT22;15167;1.318;103.762;2022-08-27T05:15:45;32.10;1.00
27781;DHT22;15167;1.318;103.762;2022-08-27T05:18:12;32.20;1.00
27781;DHT22;15167;1.318;103.762;2022-08-27T05:20:43;32.20;1.00
27781;DHT22;15167;1.318;103.762;2022-08-27T05:23:10;32.30;1.00
27781;DHT22;15167;1.318;103.762;2022-08-27T05:25:37;32.40;1.00
27781;DHT22;15167;1.318;103.762;2022-08-27T05:28:03;32.50;1.00
27781;DHT22;15167;1.318;103.762;2022-08-27T05:30:36;32.50;1.00
27781;DHT22;15167;1.318;103.762;2022-08-27T05:33:03;32.40;1.00
27781;DHT22;15167;1.318;103.762;2022-08-27T05:35:29;32.40;1.00
27781;DHT22;15167;1.318;103.762;2022-08-27T05:37:57;32.40;1.00
27781;DHT22;15167;1.318;103.762;2022-08-27T05:40:24;32.40;1.00
27781;DHT22;15167;1.318;103.762;2022-08-27T05:42:51;32.30;1.00
27781;DHT22;15167;1.318;103.762;2022-08-27T05:45:17;32.30;1.00
27781;DHT22;15167;1.318;103.762;2022-08-27T05:47:44;32.40;1.00
27781;DHT22;15167;1.318;103.762;2022-08-27T05:50:10;32.50;1.00
27781;DHT22;15167;1.318;103.762;2022-08-27T05:52:36;32.50;1.00
27781;DHT22;15167;1.318;103.762;2022-08-27T05:55:02;32.70;1.00
27781;DHT22;15167;1.318;103.762;2022-08-27T05:57:29;32.70;1.00
27781;DHT22;15167;1.318;103.762;2022-08-27T05:59:55;32.50;1.00
27781;DHT22;15167;1.318;103.762;2022-08-27T06:02:39;32.40;1.00
27781;DHT22;15167;1.318;103.762;2022-08-27T06:05:05;32.40;1.00
27781;DHT22;15167;1.318;103.762;2022-08-27T06:07:32;32.30;1.00
27781;DHT22;15167;1.318;103.762;2022-08-27T06:09:59;32.20;1.00
27781;DHT22;15167;1.318;103.762;2022-08-27T06:12:25;32.10;1.00
27781;DHT22;15167;1.318;103.762;2022-08-27T06:14:51;32.00;1.00
27781;DHT22;15167;1.318;103.762;2022-08-27T06:17:17;32.00;1.00
27781;DHT22;15167;1.318;103.762;2022-08-27T06:19:44;32.00;1.00
27781;DHT22;15167;1.318;103.762;2022-08-27T06:22:10;31.90;1.00
27781;DHT22;15167;1.318;103.762;2022-08-27T06:24:38;31.90;99.90
27781;DHT22;15167;1.318;103.762;2022-08-27T06:27:04;31.90;99.90
27781;DHT22;15167;1.318;103.762;2022-08-27T06:29:30;31.90;99.90
27781;DHT22;15167;1.318;103.762;2022-08-27T06:31:59;31.90;99.90
27781;DHT22;15167;1.318;103.762;2022-08-27T06:34:25;31.80;99.90
27781;DHT22;15167;1.318;103.762;2022-08-27T06:36:51;31.70;1.00
27781;DHT22;15167;1.318;103.762;2022-08-27T06:39:18;31.60;1.00
27781;DHT22;15167;1.318;103.762;2022-08-27T06:41:45;31.30;1.00
27781;DHT22;15167;1.318;103.762;2022-08-27T06:44:11;31.20;1.00
27781;DHT22;15167;1.318;103.762;2022-08-27T06:46:38;31.10;1.00
27781;DHT22;15167;1.318;103.762;2022-08-27T06:49:05;31.00;31.50
27781;DHT22;15167;1.318;103.762;2022-08-27T06:51:32;30.80;31.00
27781;DHT22;15167;1.318;103.762;2022-08-27T06:54:00;30.70;36.50
27781;DHT22;15167;1.318;103.762;2022-08-27T06:56:26;30.50;99.90
27781;DHT22;15167;1.318;103.762;2022-08-27T06:58:53;30.50;99.90
27781;DHT22;15167;1.318;103.762;2022-08-27T07:01:21;30.40;99.90
27781;DHT22;15167;1.318;103.762;2022-08-27T07:03:47;30.40;99.90
27781;DHT22;15167;1.318;103.762;2022-08-27T07:06:14;30.30;99.90
27781;DHT22;15167;1.318;103.762;2022-08-27T07:08:41;30.20;99.90
27781;DHT22;15167;1.318;103.762;2022-08-27T07:11:08;30.20;99.90
27781;DHT22;15167;1.318;103.762;2022-08-27T07:13:35;30.10;99.90
27781;DHT22;15167;1.318;103.762;2022-08-27T07:16:05;30.00;99.90
27781;DHT22;15167;1.318;103.762;2022-08-27T07:18:31;29.90;99.90
27781;DHT22;15167;1.318;103.762;2022-08-27T07:20:58;29.80;99.90
27781;DHT22;15167;1.318;103.762;2022-08-27T07:23:24;29.80;99.90
27781;DHT22;15167;1.318;103.762;2022-08-27T07:25:51;29.80;99.90
27781;DHT22;15167;1.318;103.762;2022-08-27T07:28:17;29.70;99.90
27781;DHT22;15167;1.318;103.762;2022-08-27T07:30:44;29.60;99.90
27781;DHT22;15167;1.318;103.762;2022-08-27T07:33:10;29.60;99.90
27781;DHT22;15167;1.318;103.762;2022-08-27T07:35:36;29.60;99.90
27781;DHT22;15167;1.318;103.762;2022-08-27T07:38:02;29.60;99.90
27781;DHT22;15167;1.318;103.762;2022-08-27T07:40:28;29.60;99.90
27781;DHT22;15167;1.318;103.762;2022-08-27T07:42:55;29.50;99.90
27781;DHT22;15167;1.318;103.762;2022-08-27T07:45:43;29.50;99.90
27781;DHT22;15167;1.318;103.762;2022-08-27T07:48:09;29.50;99.90
27781;DHT22;15167;1.318;103.762;2022-08-27T07:50:36;29.40;99.90
27781;DHT22;15167;1.318;103.762;2022-08-27T07:53:02;29.40;99.90
27781;DHT22;15167;1.318;103.762;2022-08-27T07:55:28;29.40;99.90
27781;DHT22;15167;1.318;103.762;2022-08-27T07:57:54;28.90;99.90
27781;DHT22;15167;1.318;103.762;2022-08-27T08:00:20;28.30;99.90
27781;DHT22;15167;1.318;103.762;2022-08-27T08:02:46;28.00;99.90
27781;DHT22;15167;1.318;103.762;2022-08-27T08:05:13;27.70;99.90
27781;DHT22;15167;1.318;103.762;2022-08-27T08:07:42;27.40;99.90
27781;DHT22;15167;1.318;103.762;2022-08-27T08:10:09;27.50;99.90
27781;DHT22;15167;1.318;103.762;2022-08-27T08:12:36;27.60;1.00
27781;DHT22;15167;1.318;103.762;2022-08-27T08:15:03;27.70;1.00
27781;DHT22;15167;1.318;103.762;2022-08-27T08:17:34;27.90;99.90
27781;DHT22;15167;1.318;103.762;2022-08-27T08:20:00;28.10;1.00
27781;DHT22;15167;1.318;103.762;2022-08-27T08:22:26;28.20;99.90
27781;DHT22;15167;1.318;103.762;2022-08-27T08:24:53;28.30;99.90
27781;DHT22;15167;1.318;103.762;2022-08-27T08:27:19;28.40;99.90
27781;DHT22;15167;1.318;103.762;2022-08-27T08:29:46;28.40;99.90
27781;DHT22;15167;1.318;103.762;2022-08-27T08:32:12;28.40;99.90
27781;DHT22;15167;1.318;103.762;2022-08-27T08:34:39;28.40;99.90
27781;DHT22;15167;1.318;103.762;2022-08-27T08:37:05;28.40;99.90
27781;DHT22;15167;1.318;103.762;2022-08-27T08:39:32;28.40;99.90
27781;DHT22;15167;1.318;103.762;2022-08-27T08:42:00;28.50;99.90
27781;DHT22;15167;1.318;103.762;2022-08-27T08:47:11;28.30;99.90
27781;DHT22;15167;1.318;103.762;2022-08-27T08:49:55;27.90;99.90
27781;DHT22;15167;1.318;103.762;2022-08-27T08:58:11;27.60;99.90
27781;DHT22;15167;1.318;103.762;2022-08-27T09:00:38;27.70;99.90
27781;DHT22;15167;1.318;103.762;2022-08-27T09:03:05;27.70;99.90
27781;DHT22;15167;1.318;103.762;2022-08-27T09:05:32;27.70;99.90
27781;DHT22;15167;1.318;103.762;2022-08-27T09:08:03;27.70;99.90
27781;DHT22;15167;1.318;103.762;2022-08-27T09:10:33;27.80;99.90
27781;DHT22;15167;1.318;103.762;2022-08-27T09:13:02;27.90;99.90
27781;DHT22;15167;1.318;103.762;2022-08-27T09:15:31;27.80;99.90
27781;DHT22;15167;1.318;103.762;2022-08-27T09:18:05;27.80;99.90
27781;DHT22;15167;1.318;103.762;2022-08-27T09:20:32;27.70;99.90
27781;DHT22;15167;1.318;103.762;2022-08-27T09:23:17;27.60;99.90
27781;DHT22;15167;1.318;103.762;2022-08-27T09:25:46;27.80;99.90
27781;DHT22;15167;1.318;103.762;2022-08-27T09:28:14;27.80;99.90
27781;DHT22;15167;1.318;103.762;2022-08-27T09:31:02;27.90;99.90
27781;DHT22;15167;1.318;103.762;2022-08-27T09:33:29;27.90;99.90
27781;DHT22;15167;1.318;103.762;2022-08-27T09:35:59;27.80;99.90
27781;DHT22;15167;1.318;103.762;2022-08-27T09:38:26;27.80;99.90
27781;DHT22;15167;1.318;103.762;2022-08-27T09:40:54;27.80;99.90
27781;DHT22;15167;1.318;103.762;2022-08-27T09:43:22;27.80;99.90
27781;DHT22;15167;1.318;103.762;2022-08-27T09:45:50;27.80;99.90
27781;DHT22;15167;1.318;103.762;2022-08-27T09:48:18;27.80;99.90
27781;DHT22;15167;1.318;103.762;2022-08-27T09:50:46;27.60;99.90
27781;DHT22;15167;1.318;103.762;2022-08-27T09:53:16;27.40;99.90
27781;DHT22;15167;1.318;103.762;2022-08-27T09:55:44;27.30;99.90
27781;DHT22;15167;1.318;103.762;2022-08-27T09:58:16;27.30;99.90
27781;DHT22;15167;1.318;103.762;2022-08-27T10:00:42;27.20;99.90
27781;DHT22;15167;1.318;103.762;2022-08-27T10:03:09;27.00;1.00
27781;DHT22;15167;1.318;103.762;2022-08-27T10:05:37;26.90;1.00
27781;DHT22;15167;1.318;103.762;2022-08-27T10:08:49;26.90;1.00
27781;DHT22;15167;1.318;103.762;2022-08-27T10:11:03;26.80;1.00
27781;DHT22;15167;1.318;103.762;2022-08-27T10:13:51;26.80;1.00
27781;DHT22;15167;1.318;103.762;2022-08-27T10:23:50;26.60;1.00
27781;DHT22;15167;1.318;103.762;2022-08-27T10:26:23;26.70;1.00
27781;DHT22;15167;1.318;103.762;2022-08-27T10:36:31;26.60;1.00
27781;DHT22;15167;1.318;103.762;2022-08-27T10:39:16;26.50;1.00
27781;DHT22;15167;1.318;103.762;2022-08-27T10:41:53;26.50;1.00
27781;DHT22;15167;1.318;103.762;2022-08-27T10:44:36;26.50;1.00
27781;DHT22;15167;1.318;103.762;2022-08-27T10:50:05;26.40;1.00
27781;DHT22;15167;1.318;103.762;2022-08-27T10:52:42;26.40;1.00
27781;DHT22;15167;1.318;103.762;2022-08-27T10:55:29;26.40;1.00
27781;DHT22;15167;1.318;103.762;2022-08-27T11:00:29;26.40;1.00
27781;DHT22;15167;1.318;103.762;2022-08-27T11:03:00;26.40;1.00
27781;DHT22;15167;1.318;103.762;2022-08-27T11:10:29;26.40;1.00
27781;DHT22;15167;1.318;103.762;2022-08-27T11:12:57;26.40;1.00
27781;DHT22;15167;1.318;103.762;2022-08-27T11:20:21;26.40;1.00
27781;DHT22;15167;1.318;103.762;2022-08-27T11:22:51;26.30;1.00
27781;DHT22;15167;1.318;103.762;2022-08-27T11:27:54;26.20;1.00
27781;DHT22;15167;1.318;103.762;2022-08-27T11:35:37;26.20;1.00
27781;DHT22;15167;1.318;103.762;2022-08-27T11:40:49;26.30;1.00
27781;DHT22;15167;1.318;103.762;2022-08-27T11:43:18;26.40;1.00
27781;DHT22;15167;1.318;103.762;2022-08-27T11:45:53;26.40;1.00
27781;DHT22;15167;1.318;103.762;2022-08-27T11:51:03;26.50;1.00
27781;DHT22;15167;1.318;103.762;2022-08-27T11:53:37;26.50;1.00
27781;DHT22;15167;1.318;103.762;2022-08-27T11:56:15;26.50;1.00
27781;DHT22;15167;1.318;103.762;2022-08-27T11:58:44;26.60;1.00
27781;DHT22;15167;1.318;103.762;2022-08-27T12:01:15;26.50;1.00
27781;DHT22;15167;1.318;103.762;2022-08-27T12:03:41;26.50;1.00
27781;DHT22;15167;1.318;103.762;2022-08-27T12:06:19;26.50;1.00
27781;DHT22;15167;1.318;103.762;2022-08-27T12:08:50;26.50;1.00
27781;DHT22;15167;1.318;103.762;2022-08-27T12:11:25;26.50;1.00
27781;DHT22;15167;1.318;103.762;2022-08-27T12:24:48;26.30;1.00
27781;DHT22;15167;1.318;103.762;2022-08-27T12:29:51;26.30;1.00
27781;DHT22;15167;1.318;103.762;2022-08-27T12:32:23;26.30;1.00
27781;DHT22;15167;1.318;103.762;2022-08-27T12:34:57;26.30;1.00
27781;DHT22;15167;1.318;103.762;2022-08-27T12:37:26;26.20;1.00
27781;DHT22;15167;1.318;103.762;2022-08-27T12:39:53;26.30;1.00
27781;DHT22;15167;1.318;103.762;2022-08-27T12:42:22;26.20;1.00
27781;DHT22;15167;1.318;103.762;2022-08-27T12:44:57;26.20;1.00
27781;DHT22;15167;1.318;103.762;2022-08-27T12:47:24;26.10;1.00
27781;DHT22;15167;1.318;103.762;2022-08-27T12:49:55;26.10;1.00
27781;DHT22;15167;1.318;103.762;2022-08-27T13:00:14;26.20;1.00
27781;DHT22;15167;1.318;103.762;2022-08-27T13:05:35;26.20;1.00
27781;DHT22;15167;1.318;103.762;2022-08-27T13:08:02;26.10;1.00
27781;DHT22;15167;1.318;103.762;2022-08-27T13:10:29;26.10;1.00
27781;DHT22;15167;1.318;103.762;2022-08-27T13:13:00;26.00;1.00
27781;DHT22;15167;1.318;103.762;2022-08-27T13:15:27;25.90;1.00
27781;DHT22;15167;1.318;103.762;2022-08-27T13:17:53;25.90;1.00
27781;DHT22;15167;1.318;103.762;2022-08-27T13:20:21;25.90;1.00
27781;DHT22;15167;1.318;103.762;2022-08-27T13:22:48;25.90;1.00
27781;DHT22;15167;1.318;103.762;2022-08-27T13:25:22;25.80;1.00
27781;DHT22;15167;1.318;103.762;2022-08-27T13:27:53;25.90;1.00
27781;DHT22;15167;1.318;103.762;2022-08-27T13:30:19;25.90;1.00
27781;DHT22;15167;1.318;103.762;2022-08-27T13:32:47;25.90;1.00
27781;DHT22;15167;1.318;103.762;2022-08-27T13:35:13;26.00;1.00
27781;DHT22;15167;1.318;103.762;2022-08-27T13:37:42;26.10;1.00
27781;DHT22;15167;1.318;103.762;2022-08-27T13:40:09;26.10;1.00
27781;DHT22;15167;1.318;103.762;2022-08-27T13:42:38;26.10;1.00
27781;DHT22;15167;1.318;103.762;2022-08-27T13:45:06;26.20;1.00
27781;DHT22;15167;1.318;103.762;2022-08-27T13:47:39;26.10;1.00
27781;DHT22;15167;1.318;103.762;2022-08-27T13:50:08;26.20;1.00
27781;DHT22;15167;1.318;103.762;2022-08-27T13:52:37;26.20;1.00
27781;DHT22;15167;1.318;103.762;2022-08-27T13:55:24;26.20;1.00
27781;DHT22;15167;1.318;103.762;2022-08-27T13:57:50;26.20;1.00
27781;DHT22;15167;1.318;103.762;2022-08-27T14:00:20;26.20;1.00
27781;DHT22;15167;1.318;103.762;2022-08-27T14:02:47;26.20;1.00
27781;DHT22;15167;1.318;103.762;2022-08-27T14:05:25;26.20;1.00
27781;DHT22;15167;1.318;103.762;2022-08-27T14:07:58;26.20;1.00
27781;DHT22;15167;1.318;103.762;2022-08-27T14:10:31;26.20;1.00
27781;DHT22;15167;1.318;103.762;2022-08-27T14:13:00;26.20;1.00
27781;DHT22;15167;1.318;103.762;2022-08-27T14:17:56;26.10;1.00
27781;DHT22;15167;1.318;103.762;2022-08-27T14:20:23;26.20;1.00
27781;DHT22;15167;1.318;103.762;2022-08-27T14:22:49;26.20;1.00
27781;DHT22;15167;1.318;103.762;2022-08-27T14:25:16;26.20;1.00
27781;DHT22;15167;1.318;103.762;2022-08-27T14:27:42;26.20;1.00
27781;DHT22;15167;1.318;103.762;2022-08-27T14:30:10;26.20;1.00
27781;DHT22;15167;1.318;103.762;2022-08-27T14:32:37;26.20;1.00
27781;DHT22;15167;1.318;103.762;2022-08-27T14:35:04;26.20;1.00
27781;DHT22;15167;1.318;103.762;2022-08-27T14:37:30;26.20;1.00
27781;DHT22;15167;1.318;103.762;2022-08-27T14:39:56;26.20;1.00
27781;DHT22;15167;1.318;103.762;2022-08-27T14:42:22;26.20;1.00
27781;DHT22;15167;1.318;103.762;2022-08-27T14:44:49;26.10;1.00
27781;DHT22;15167;1.318;103.762;2022-08-27T14:47:15;26.10;1.00
27781;DHT22;15167;1.318;103.762;2022-08-27T14:49:42;26.10;1.00
27781;DHT22;15167;1.318;103.762;2022-08-27T14:52:09;26.00;1.00
27781;DHT22;15167;1.318;103.762;2022-08-27T14:54:36;26.00;1.00
27781;DHT22;15167;1.318;103.762;2022-08-27T14:57:03;26.00;1.00
27781;DHT22;15167;1.318;103.762;2022-08-27T14:59:30;26.00;1.00
27781;DHT22;15167;1.318;103.762;2022-08-27T15:01:57;26.00;1.00
27781;DHT22;15167;1.318;103.762;2022-08-27T15:04:24;26.00;1.00
27781;DHT22;15167;1.318;103.762;2022-08-27T15:06:50;26.00;1.00
27781;DHT22;15167;1.318;103.762;2022-08-27T15:09:17;26.00;1.00
27781;DHT22;15167;1.318;103.762;2022-08-27T15:11:43;26.00;1.00
27781;DHT22;15167;1.318;103.762;2022-08-27T15:14:17;26.00;1.00
27781;DHT22;15167;1.318;103.762;2022-08-27T15:16:46;26.00;1.00
27781;DHT22;15167;1.318;103.762;2022-08-27T15:19:12;26.00;1.00
27781;DHT22;15167;1.318;103.762;2022-08-27T15:21:40;26.00;1.00
27781;DHT22;15167;1.318;103.762;2022-08-27T15:26:38;26.00;1.00
27781;DHT22;15167;1.318;103.762;2022-08-27T15:29:04;26.00;1.00
27781;DHT22;15167;1.318;103.762;2022-08-27T15:31:30;26.00;1.00
27781;DHT22;15167;1.318;103.762;2022-08-27T15:33:56;26.00;1.00
27781;DHT22;15167;1.318;103.762;2022-08-27T15:36:22;26.00;1.00
27781;DHT22;15167;1.318;103.762;2022-08-27T15:38:49;26.00;1.00
27781;DHT22;15167;1.318;103.762;2022-08-27T15:41:16;26.00;1.00
27781;DHT22;15167;1.318;103.762;2022-08-27T15:43:42;26.00;1.00
27781;DHT22;15167;1.318;103.762;2022-08-27T15:46:08;26.00;1.00
27781;DHT22;15167;1.318;103.762;2022-08-27T15:48:35;26.00;1.00
27781;DHT22;15167;1.318;103.762;2022-08-27T15:51:02;26.00;1.00
27781;DHT22;15167;1.318;103.762;2022-08-27T15:53:29;26.00;1.00
27781;DHT22;15167;1.318;103.762;2022-08-27T15:55:55;26.00;1.00
27781;DHT22;15167;1.318;103.762;2022-08-27T15:58:21;26.00;1.00
27781;DHT22;15167;1.318;103.762;2022-08-27T16:00:48;26.00;1.00
27781;DHT22;15167;1.318;103.762;2022-08-27T16:03:14;26.00;1.00
27781;DHT22;15167;1.318;103.762;2022-08-27T16:05:41;26.00;1.00
27781;DHT22;15167;1.318;103.762;2022-08-27T16:08:08;26.00;1.00
27781;DHT22;15167;1.318;103.762;2022-08-27T16:10:34;26.00;1.00
27781;DHT22;15167;1.318;103.762;2022-08-27T16:13:01;26.00;1.00
27781;DHT22;15167;1.318;103.762;2022-08-27T16:15:27;26.00;1.00
27781;DHT22;15167;1.318;103.762;2022-08-27T16:17:55;26.00;1.00
27781;DHT22;15167;1.318;103.762;2022-08-27T16:20:22;26.00;1.00
27781;DHT22;15167;1.318;103.762;2022-08-27T16:22:50;26.00;1.00
27781;DHT22;15167;1.318;103.762;2022-08-27T16:25:17;26.00;1.00
27781;DHT22;15167;1.318;103.762;2022-08-27T16:27:45;26.00;1.00
27781;DHT22;15167;1.318;103.762;2022-08-27T16:30:12;25.90;1.00
27781;DHT22;15167;1.318;103.762;2022-08-27T16:32:38;25.90;1.00
27781;DHT22;15167;1.318;103.762;2022-08-27T16:35:05;25.90;1.00
27781;DHT22;15167;1.318;103.762;2022-08-27T16:37:33;25.90;1.00
27781;DHT22;15167;1.318;103.762;2022-08-27T16:40:00;25.90;1.00
27781;DHT22;15167;1.318;103.762;2022-08-27T16:42:26;25.90;1.00
27781;DHT22;15167;1.318;103.762;2022-08-27T16:44:52;25.90;1.00
27781;DHT22;15167;1.318;103.762;2022-08-27T16:47:18;25.90;1.00
27781;DHT22;15167;1.318;103.762;2022-08-27T16:49:44;25.90;1.00
27781;DHT22;15167;1.318;103.762;2022-08-27T16:52:29;25.90;1.00
27781;DHT22;15167;1.318;103.762;2022-08-27T16:54:55;25.90;1.00